Terminal Aerodrome Forecast
Issued by NWS

Home | Current Version | Previous Version | Text Only | Print | Product List | Glossary On
Versions: 1 2 3 4 5 6 7 8 9 10 11 12 13 14 15 16 17 18 19 20 21
000
FTUS45 KGGW 271100
TAFSDY
TAF
KSDY 271120Z 2712/2812 14011KT P6SM OVC060
     FM271400 14011KT 5SM -SN OVC024
     FM271800 15012KT 5SM -FZRASN OVC017
     FM280000 VRB04KT P6SM BKN020
      AMD LTD TO CLD VIS AND WIND=

USA.gov is the U.S. government's official web portal to all federal, state and local government web resources and services.